sensor_id;sensor_type;location;lat;lon;timestamp;temperature;humidity
21678;DHT22;11000;50.360;7.582;2022-08-25T00:00:03;22.30;99.90
21678;DHT22;11000;50.360;7.582;2022-08-25T00:02:24;22.30;99.90
21678;DHT22;11000;50.360;7.582;2022-08-25T00:04:45;22.20;99.90
21678;DHT22;11000;50.360;7.582;2022-08-25T00:07:06;22.20;99.90
21678;DHT22;11000;50.360;7.582;2022-08-25T00:09:27;22.20;99.90
21678;DHT22;11000;50.360;7.582;2022-08-25T00:11:48;22.20;99.90
21678;DHT22;11000;50.360;7.582;2022-08-25T00:14:13;22.10;99.90
21678;DHT22;11000;50.360;7.582;2022-08-25T00:16:34;22.00;99.90
21678;DHT22;11000;50.360;7.582;2022-08-25T00:18:57;22.00;99.90
21678;DHT22;11000;50.360;7.582;2022-08-25T00:21:19;22.00;99.90
21678;DHT22;11000;50.360;7.582;2022-08-25T00:23:41;21.80;99.90
21678;DHT22;11000;50.360;7.582;2022-08-25T00:26:01;21.80;99.90
21678;DHT22;11000;50.360;7.582;2022-08-25T00:28:22;21.80;99.90
21678;DHT22;11000;50.360;7.582;2022-08-25T00:30:43;21.80;99.90
21678;DHT22;11000;50.360;7.582;2022-08-25T00:33:04;21.70;99.90
21678;DHT22;11000;50.360;7.582;2022-08-25T00:35:25;21.70;99.90
21678;DHT22;11000;50.360;7.582;2022-08-25T00:37:46;21.70;99.90
21678;DHT22;11000;50.360;7.582;2022-08-25T00:40:07;21.70;99.90
21678;DHT22;11000;50.360;7.582;2022-08-25T00:42:28;21.70;99.90
21678;DHT22;11000;50.360;7.582;2022-08-25T00:44:48;21.70;99.90
21678;DHT22;11000;50.360;7.582;2022-08-25T00:47:09;21.70;99.90
21678;DHT22;11000;50.360;7.582;2022-08-25T00:49:39;21.60;99.90
21678;DHT22;11000;50.360;7.582;2022-08-25T00:52:05;21.60;99.90
21678;DHT22;11000;50.360;7.582;2022-08-25T00:54:33;21.50;99.90
21678;DHT22;11000;50.360;7.582;2022-08-25T00:56:55;21.50;99.90
21678;DHT22;11000;50.360;7.582;2022-08-25T00:59:19;21.50;99.90
21678;DHT22;11000;50.360;7.582;2022-08-25T01:01:40;21.40;99.90
21678;DHT22;11000;50.360;7.582;2022-08-25T01:04:01;21.40;99.90
21678;DHT22;11000;50.360;7.582;2022-08-25T01:06:22;21.40;99.90
21678;DHT22;11000;50.360;7.582;2022-08-25T01:08:43;21.30;99.90
21678;DHT22;11000;50.360;7.582;2022-08-25T01:11:05;21.20;99.90
21678;DHT22;11000;50.360;7.582;2022-08-25T01:13:33;21.30;99.90
21678;DHT22;11000;50.360;7.582;2022-08-25T01:15:55;21.40;99.90
21678;DHT22;11000;50.360;7.582;2022-08-25T01:18:17;21.30;99.90
21678;DHT22;11000;50.360;7.582;2022-08-25T01:20:37;21.20;99.90
21678;DHT22;11000;50.360;7.582;2022-08-25T01:22:58;21.20;99.90
21678;DHT22;11000;50.360;7.582;2022-08-25T01:28:13;21.10;99.90
21678;DHT22;11000;50.360;7.582;2022-08-25T01:30:34;21.10;99.90
21678;DHT22;11000;50.360;7.582;2022-08-25T01:32:55;21.10;99.90
21678;DHT22;11000;50.360;7.582;2022-08-25T01:35:16;21.00;99.90
21678;DHT22;11000;50.360;7.582;2022-08-25T01:37:36;21.00;99.90
21678;DHT22;11000;50.360;7.582;2022-08-25T01:39:57;21.00;99.90
21678;DHT22;11000;50.360;7.582;2022-08-25T01:44:45;21.00;99.90
21678;DHT22;11000;50.360;7.582;2022-08-25T01:47:06;20.90;99.90
21678;DHT22;11000;50.360;7.582;2022-08-25T01:49:27;20.90;99.90
21678;DHT22;11000;50.360;7.582;2022-08-25T01:51:55;20.90;99.90
21678;DHT22;11000;50.360;7.582;2022-08-25T01:54:16;20.90;99.90
21678;DHT22;11000;50.360;7.582;2022-08-25T01:56:36;20.90;99.90
21678;DHT22;11000;50.360;7.582;2022-08-25T01:58:57;20.80;99.90
21678;DHT22;11000;50.360;7.582;2022-08-25T02:01:20;20.70;99.90
21678;DHT22;11000;50.360;7.582;2022-08-25T02:03:43;20.70;99.90
21678;DHT22;11000;50.360;7.582;2022-08-25T02:06:05;20.70;99.90
21678;DHT22;11000;50.360;7.582;2022-08-25T02:08:25;20.70;99.90
21678;DHT22;11000;50.360;7.582;2022-08-25T02:10:46;20.60;99.90
21678;DHT22;11000;50.360;7.582;2022-08-25T02:13:07;20.60;99.90
21678;DHT22;11000;50.360;7.582;2022-08-25T02:15:28;20.60;99.90
21678;DHT22;11000;50.360;7.582;2022-08-25T02:17:48;20.50;99.90
21678;DHT22;11000;50.360;7.582;2022-08-25T02:20:09;20.50;99.90
21678;DHT22;11000;50.360;7.582;2022-08-25T02:22:30;20.60;99.90
21678;DHT22;11000;50.360;7.582;2022-08-25T02:24:50;20.50;99.90
21678;DHT22;11000;50.360;7.582;2022-08-25T02:27:11;20.60;99.90
21678;DHT22;11000;50.360;7.582;2022-08-25T02:29:32;20.60;99.90
21678;DHT22;11000;50.360;7.582;2022-08-25T02:31:53;20.50;99.90
21678;DHT22;11000;50.360;7.582;2022-08-25T02:34:13;20.30;99.90
21678;DHT22;11000;50.360;7.582;2022-08-25T02:36:35;20.30;99.90
21678;DHT22;11000;50.360;7.582;2022-08-25T02:38:57;20.30;99.90
21678;DHT22;11000;50.360;7.582;2022-08-25T02:41:21;20.20;99.90
21678;DHT22;11000;50.360;7.582;2022-08-25T02:43:43;20.20;99.90
21678;DHT22;11000;50.360;7.582;2022-08-25T02:46:04;20.20;99.90
21678;DHT22;11000;50.360;7.582;2022-08-25T02:48:24;20.20;99.90
21678;DHT22;11000;50.360;7.582;2022-08-25T02:50:47;20.20;99.90
21678;DHT22;11000;50.360;7.582;2022-08-25T02:53:08;20.20;99.90
21678;DHT22;11000;50.360;7.582;2022-08-25T02:55:28;20.20;99.90
21678;DHT22;11000;50.360;7.582;2022-08-25T02:57:49;20.20;99.90
21678;DHT22;11000;50.360;7.582;2022-08-25T03:00:11;20.20;99.90
21678;DHT22;11000;50.360;7.582;2022-08-25T03:02:32;20.20;99.90
21678;DHT22;11000;50.360;7.582;2022-08-25T03:04:53;20.10;99.90
21678;DHT22;11000;50.360;7.582;2022-08-25T03:07:13;20.20;99.90
21678;DHT22;11000;50.360;7.582;2022-08-25T03:09:34;20.30;99.90
21678;DHT22;11000;50.360;7.582;2022-08-25T03:11:54;20.20;99.90
21678;DHT22;11000;50.360;7.582;2022-08-25T03:14:15;20.20;99.90
21678;DHT22;11000;50.360;7.582;2022-08-25T03:16:36;20.20;99.90
21678;DHT22;11000;50.360;7.582;2022-08-25T03:18:57;20.20;99.90
21678;DHT22;11000;50.360;7.582;2022-08-25T03:21:18;20.10;99.90
21678;DHT22;11000;50.360;7.582;2022-08-25T03:23:41;20.10;99.90
21678;DHT22;11000;50.360;7.582;2022-08-25T03:26:02;20.10;99.90
21678;DHT22;11000;50.360;7.582;2022-08-25T03:28:41;20.10;99.90
21678;DHT22;11000;50.360;7.582;2022-08-25T03:31:02;20.00;99.90
21678;DHT22;11000;50.360;7.582;2022-08-25T03:33:22;20.00;99.90
21678;DHT22;11000;50.360;7.582;2022-08-25T03:35:43;20.00;99.90
21678;DHT22;11000;50.360;7.582;2022-08-25T03:38:04;19.90;99.90
21678;DHT22;11000;50.360;7.582;2022-08-25T03:40:25;19.80;99.90
21678;DHT22;11000;50.360;7.582;2022-08-25T03:42:46;19.80;99.90
21678;DHT22;11000;50.360;7.582;2022-08-25T03:45:07;19.80;99.90
21678;DHT22;11000;50.360;7.582;2022-08-25T03:47:27;19.80;99.90
21678;DHT22;11000;50.360;7.582;2022-08-25T03:49:48;19.80;99.90
21678;DHT22;11000;50.360;7.582;2022-08-25T03:52:09;19.70;99.90
21678;DHT22;11000;50.360;7.582;2022-08-25T03:54:29;19.70;99.90
21678;DHT22;11000;50.360;7.582;2022-08-25T03:56:50;19.70;99.90
21678;DHT22;11000;50.360;7.582;2022-08-25T03:59:11;19.60;99.90
21678;DHT22;11000;50.360;7.582;2022-08-25T04:01:32;19.60;99.90
21678;DHT22;11000;50.360;7.582;2022-08-25T04:03:53;19.60;99.90
21678;DHT22;11000;50.360;7.582;2022-08-25T04:06:15;19.60;99.90
21678;DHT22;11000;50.360;7.582;2022-08-25T04:08:36;19.60;99.90
21678;DHT22;11000;50.360;7.582;2022-08-25T04:10:57;19.60;99.90
21678;DHT22;11000;50.360;7.582;2022-08-25T04:13:18;19.60;99.90
21678;DHT22;11000;50.360;7.582;2022-08-25T04:15:42;19.60;99.90
21678;DHT22;11000;50.360;7.582;2022-08-25T04:18:03;19.60;99.90
21678;DHT22;11000;50.360;7.582;2022-08-25T04:20:24;19.50;99.90
21678;DHT22;11000;50.360;7.582;2022-08-25T04:22:44;19.50;99.90
21678;DHT22;11000;50.360;7.582;2022-08-25T04:25:06;19.60;99.90
21678;DHT22;11000;50.360;7.582;2022-08-25T04:27:26;19.50;99.90
21678;DHT22;11000;50.360;7.582;2022-08-25T04:29:47;19.40;99.90
21678;DHT22;11000;50.360;7.582;2022-08-25T04:32:07;19.40;99.90
21678;DHT22;11000;50.360;7.582;2022-08-25T04:34:28;19.40;99.90
21678;DHT22;11000;50.360;7.582;2022-08-25T04:36:49;19.40;99.90
21678;DHT22;11000;50.360;7.582;2022-08-25T04:39:10;19.30;99.90
21678;DHT22;11000;50.360;7.582;2022-08-25T04:41:31;19.30;99.90
21678;DHT22;11000;50.360;7.582;2022-08-25T04:43:52;19.30;99.90
21678;DHT22;11000;50.360;7.582;2022-08-25T04:46:18;19.30;99.90
21678;DHT22;11000;50.360;7.582;2022-08-25T04:48:40;19.30;99.90
21678;DHT22;11000;50.360;7.582;2022-08-25T04:51:05;19.30;99.90
21678;DHT22;11000;50.360;7.582;2022-08-25T04:53:25;19.40;99.90
21678;DHT22;11000;50.360;7.582;2022-08-25T04:55:47;19.40;99.90
21678;DHT22;11000;50.360;7.582;2022-08-25T04:58:08;19.50;99.90
21678;DHT22;11000;50.360;7.582;2022-08-25T05:00:28;19.30;99.90
21678;DHT22;11000;50.360;7.582;2022-08-25T05:02:49;19.40;99.90
21678;DHT22;11000;50.360;7.582;2022-08-25T05:05:09;19.40;99.90
21678;DHT22;11000;50.360;7.582;2022-08-25T05:07:30;19.40;99.90
21678;DHT22;11000;50.360;7.582;2022-08-25T05:09:50;19.40;99.90
21678;DHT22;11000;50.360;7.582;2022-08-25T05:12:11;19.40;99.90
21678;DHT22;11000;50.360;7.582;2022-08-25T05:14:32;19.50;99.90
21678;DHT22;11000;50.360;7.582;2022-08-25T05:16:54;19.50;99.90
21678;DHT22;11000;50.360;7.582;2022-08-25T05:19:15;19.40;99.90
21678;DHT22;11000;50.360;7.582;2022-08-25T05:21:35;19.40;99.90
21678;DHT22;11000;50.360;7.582;2022-08-25T05:23:58;19.40;99.90
21678;DHT22;11000;50.360;7.582;2022-08-25T05:26:23;19.50;99.90
21678;DHT22;11000;50.360;7.582;2022-08-25T05:28:43;19.50;99.90
21678;DHT22;11000;50.360;7.582;2022-08-25T05:31:04;19.40;99.90
21678;DHT22;11000;50.360;7.582;2022-08-25T05:33:25;19.40;99.90
21678;DHT22;11000;50.360;7.582;2022-08-25T05:35:45;19.40;99.90
21678;DHT22;11000;50.360;7.582;2022-08-25T05:38:06;19.50;99.90
21678;DHT22;11000;50.360;7.582;2022-08-25T05:40:26;19.60;99.90
21678;DHT22;11000;50.360;7.582;2022-08-25T05:42:47;19.50;99.90
21678;DHT22;11000;50.360;7.582;2022-08-25T05:45:08;19.60;99.90
21678;DHT22;11000;50.360;7.582;2022-08-25T05:47:29;19.60;99.90
21678;DHT22;11000;50.360;7.582;2022-08-25T05:49:49;19.70;99.90
21678;DHT22;11000;50.360;7.582;2022-08-25T05:52:10;19.70;99.90
21678;DHT22;11000;50.360;7.582;2022-08-25T05:54:31;19.90;99.90
21678;DHT22;11000;50.360;7.582;2022-08-25T05:56:52;20.00;99.90
21678;DHT22;11000;50.360;7.582;2022-08-25T05:59:12;20.30;99.90
21678;DHT22;11000;50.360;7.582;2022-08-25T06:01:33;20.70;99.90
21678;DHT22;11000;50.360;7.582;2022-08-25T06:04:16;21.10;99.90
21678;DHT22;11000;50.360;7.582;2022-08-25T06:06:41;21.50;99.90
21678;DHT22;11000;50.360;7.582;2022-08-25T06:09:03;21.40;99.90
21678;DHT22;11000;50.360;7.582;2022-08-25T06:11:25;21.60;99.90
21678;DHT22;11000;50.360;7.582;2022-08-25T06:13:46;22.10;99.90
21678;DHT22;11000;50.360;7.582;2022-08-25T06:16:07;22.50;99.90
21678;DHT22;11000;50.360;7.582;2022-08-25T06:18:28;22.80;99.90
21678;DHT22;11000;50.360;7.582;2022-08-25T06:20:48;23.00;99.90
21678;DHT22;11000;50.360;7.582;2022-08-25T06:23:09;23.30;99.90
21678;DHT22;11000;50.360;7.582;2022-08-25T06:25:29;23.40;99.90
21678;DHT22;11000;50.360;7.582;2022-08-25T06:27:53;23.40;99.90
21678;DHT22;11000;50.360;7.582;2022-08-25T06:30:17;23.60;99.90
21678;DHT22;11000;50.360;7.582;2022-08-25T06:32:39;23.80;99.90
21678;DHT22;11000;50.360;7.582;2022-08-25T06:35:11;24.10;99.90
21678;DHT22;11000;50.360;7.582;2022-08-25T06:37:32;24.20;99.90
21678;DHT22;11000;50.360;7.582;2022-08-25T06:39:52;24.60;99.90
21678;DHT22;11000;50.360;7.582;2022-08-25T06:42:13;25.00;99.90
21678;DHT22;11000;50.360;7.582;2022-08-25T06:44:34;25.00;99.90
21678;DHT22;11000;50.360;7.582;2022-08-25T06:46:55;25.20;99.90
21678;DHT22;11000;50.360;7.582;2022-08-25T06:49:15;25.00;99.90
21678;DHT22;11000;50.360;7.582;2022-08-25T06:51:36;25.20;99.90
21678;DHT22;11000;50.360;7.582;2022-08-25T06:53:56;25.40;99.90
21678;DHT22;11000;50.360;7.582;2022-08-25T06:56:19;25.70;99.90
21678;DHT22;11000;50.360;7.582;2022-08-25T06:58:41;26.00;99.90
21678;DHT22;11000;50.360;7.582;2022-08-25T07:01:15;26.10;99.90
21678;DHT22;11000;50.360;7.582;2022-08-25T07:03:36;26.30;99.90
21678;DHT22;11000;50.360;7.582;2022-08-25T07:05:56;26.50;99.90
21678;DHT22;11000;50.360;7.582;2022-08-25T07:08:17;26.10;99.90
21678;DHT22;11000;50.360;7.582;2022-08-25T07:10:38;26.50;99.90
21678;DHT22;11000;50.360;7.582;2022-08-25T07:12:58;26.70;99.90
21678;DHT22;11000;50.360;7.582;2022-08-25T07:15:20;26.90;98.50
21678;DHT22;11000;50.360;7.582;2022-08-25T07:17:40;27.10;98.10
21678;DHT22;11000;50.360;7.582;2022-08-25T07:20:01;27.40;97.80
21678;DHT22;11000;50.360;7.582;2022-08-25T07:22:22;27.30;97.00
21678;DHT22;11000;50.360;7.582;2022-08-25T07:24:42;27.40;97.10
21678;DHT22;11000;50.360;7.582;2022-08-25T07:27:03;27.90;96.10
21678;DHT22;11000;50.360;7.582;2022-08-25T07:29:26;28.10;94.30
21678;DHT22;11000;50.360;7.582;2022-08-25T07:31:48;27.80;94.40
21678;DHT22;11000;50.360;7.582;2022-08-25T07:34:09;28.10;94.40
21678;DHT22;11000;50.360;7.582;2022-08-25T07:36:48;28.10;94.40
21678;DHT22;11000;50.360;7.582;2022-08-25T07:39:09;28.40;94.30
21678;DHT22;11000;50.360;7.582;2022-08-25T07:41:29;28.60;93.10
21678;DHT22;11000;50.360;7.582;2022-08-25T07:43:51;28.80;92.40
21678;DHT22;11000;50.360;7.582;2022-08-25T07:46:12;29.00;91.80
21678;DHT22;11000;50.360;7.582;2022-08-25T07:48:32;28.90;91.50
21678;DHT22;11000;50.360;7.582;2022-08-25T07:50:53;28.90;91.50
21678;DHT22;11000;50.360;7.582;2022-08-25T07:53:15;29.30;91.60
21678;DHT22;11000;50.360;7.582;2022-08-25T07:55:36;29.60;90.50
21678;DHT22;11000;50.360;7.582;2022-08-25T07:57:57;29.50;90.70
21678;DHT22;11000;50.360;7.582;2022-08-25T08:00:19;29.50;91.20
21678;DHT22;11000;50.360;7.582;2022-08-25T08:02:40;29.40;90.80
21678;DHT22;11000;50.360;7.582;2022-08-25T08:05:01;29.30;91.20
21678;DHT22;11000;50.360;7.582;2022-08-25T08:07:24;29.40;91.10
21678;DHT22;11000;50.360;7.582;2022-08-25T08:09:46;29.50;91.40
21678;DHT22;11000;50.360;7.582;2022-08-25T08:12:06;29.70;90.90
21678;DHT22;11000;50.360;7.582;2022-08-25T08:14:27;29.60;91.00
21678;DHT22;11000;50.360;7.582;2022-08-25T08:16:47;30.10;90.40
21678;DHT22;11000;50.360;7.582;2022-08-25T08:19:09;30.50;88.50
21678;DHT22;11000;50.360;7.582;2022-08-25T08:21:31;30.10;89.30
21678;DHT22;11000;50.360;7.582;2022-08-25T08:23:53;29.90;91.30
21678;DHT22;11000;50.360;7.582;2022-08-25T08:26:15;30.30;91.50
21678;DHT22;11000;50.360;7.582;2022-08-25T08:28:35;30.20;91.30
21678;DHT22;11000;50.360;7.582;2022-08-25T08:30:56;30.00;91.10
21678;DHT22;11000;50.360;7.582;2022-08-25T08:33:16;30.10;91.70
21678;DHT22;11000;50.360;7.582;2022-08-25T08:35:38;30.40;90.70
21678;DHT22;11000;50.360;7.582;2022-08-25T08:37:58;30.50;90.40
21678;DHT22;11000;50.360;7.582;2022-08-25T08:40:19;30.40;90.30
21678;DHT22;11000;50.360;7.582;2022-08-25T08:42:53;30.60;89.70
21678;DHT22;11000;50.360;7.582;2022-08-25T08:45:26;31.10;88.80
21678;DHT22;11000;50.360;7.582;2022-08-25T08:55:57;29.90;90.00
21678;DHT22;11000;50.360;7.582;2022-08-25T08:58:42;30.40;90.30
21678;DHT22;11000;50.360;7.582;2022-08-25T09:01:04;30.80;87.80
21678;DHT22;11000;50.360;7.582;2022-08-25T09:03:34;30.80;87.80
21678;DHT22;11000;50.360;7.582;2022-08-25T09:05:58;30.60;88.30
21678;DHT22;11000;50.360;7.582;2022-08-25T09:08:19;30.90;87.70
21678;DHT22;11000;50.360;7.582;2022-08-25T09:16:31;30.60;88.00
21678;DHT22;11000;50.360;7.582;2022-08-25T09:19:44;30.30;89.80
21678;DHT22;11000;50.360;7.582;2022-08-25T09:22:29;30.10;89.70
21678;DHT22;11000;50.360;7.582;2022-08-25T09:27:33;30.60;89.10
21678;DHT22;11000;50.360;7.582;2022-08-25T09:30:08;30.40;86.10
21678;DHT22;11000;50.360;7.582;2022-08-25T09:32:33;30.20;85.60
21678;DHT22;11000;50.360;7.582;2022-08-25T09:34:54;30.00;85.20
21678;DHT22;11000;50.360;7.582;2022-08-25T09:37:15;30.00;84.60
21678;DHT22;11000;50.360;7.582;2022-08-25T09:39:36;30.30;82.60
21678;DHT22;11000;50.360;7.582;2022-08-25T09:41:58;30.40;83.60
21678;DHT22;11000;50.360;7.582;2022-08-25T09:44:44;30.60;83.50
21678;DHT22;11000;50.360;7.582;2022-08-25T09:49:44;30.40;81.10
21678;DHT22;11000;50.360;7.582;2022-08-25T09:52:34;30.30;80.10
21678;DHT22;11000;50.360;7.582;2022-08-25T09:55:38;30.50;80.10
21678;DHT22;11000;50.360;7.582;2022-08-25T09:57:43;30.70;79.60
21678;DHT22;11000;50.360;7.582;2022-08-25T10:00:32;30.50;79.10
21678;DHT22;11000;50.360;7.582;2022-08-25T10:08:27;31.10;76.30
21678;DHT22;11000;50.360;7.582;2022-08-25T10:10:55;31.10;73.20
21678;DHT22;11000;50.360;7.582;2022-08-25T10:13:18;31.20;74.10
21678;DHT22;11000;50.360;7.582;2022-08-25T10:15:39;31.30;74.30
21678;DHT22;11000;50.360;7.582;2022-08-25T10:20:43;31.40;73.30
21678;DHT22;11000;50.360;7.582;2022-08-25T10:23:26;31.40;73.80
21678;DHT22;11000;50.360;7.582;2022-08-25T10:25:48;31.70;72.90
21678;DHT22;11000;50.360;7.582;2022-08-25T10:28:35;32.00;72.20
21678;DHT22;11000;50.360;7.582;2022-08-25T10:31:12;32.10;72.20
21678;DHT22;11000;50.360;7.582;2022-08-25T10:33:43;31.20;71.00
21678;DHT22;11000;50.360;7.582;2022-08-25T10:36:19;31.60;69.60
21678;DHT22;11000;50.360;7.582;2022-08-25T10:38:49;31.70;68.50
21678;DHT22;11000;50.360;7.582;2022-08-25T10:49:47;31.50;67.00
21678;DHT22;11000;50.360;7.582;2022-08-25T10:52:27;31.40;62.50
21678;DHT22;11000;50.360;7.582;2022-08-25T10:55:16;31.70;64.90
21678;DHT22;11000;50.360;7.582;2022-08-25T10:57:53;31.80;63.30
21678;DHT22;11000;50.360;7.582;2022-08-25T11:00:19;31.60;60.10
21678;DHT22;11000;50.360;7.582;2022-08-25T11:02:59;31.70;59.50
21678;DHT22;11000;50.360;7.582;2022-08-25T11:05:41;32.10;56.00
21678;DHT22;11000;50.360;7.582;2022-08-25T11:10:58;32.90;52.80
21678;DHT22;11000;50.360;7.582;2022-08-25T11:13:30;32.80;53.60
21678;DHT22;11000;50.360;7.582;2022-08-25T11:16:09;32.40;53.30
21678;DHT22;11000;50.360;7.582;2022-08-25T11:18:31;32.00;57.20
21678;DHT22;11000;50.360;7.582;2022-08-25T11:21:09;31.80;60.40
21678;DHT22;11000;50.360;7.582;2022-08-25T11:23:36;31.80;61.00
21678;DHT22;11000;50.360;7.582;2022-08-25T11:26:12;31.70;61.40
21678;DHT22;11000;50.360;7.582;2022-08-25T11:28:58;31.80;64.20
21678;DHT22;11000;50.360;7.582;2022-08-25T11:31:21;32.00;65.30
21678;DHT22;11000;50.360;7.582;2022-08-25T11:33:42;32.00;65.50
21678;DHT22;11000;50.360;7.582;2022-08-25T11:36:12;31.70;67.10
21678;DHT22;11000;50.360;7.582;2022-08-25T11:43:59;32.20;65.60
21678;DHT22;11000;50.360;7.582;2022-08-25T11:51:44;31.80;67.20
21678;DHT22;11000;50.360;7.582;2022-08-25T11:54:26;31.70;67.10
21678;DHT22;11000;50.360;7.582;2022-08-25T12:04:51;32.70;66.20
21678;DHT22;11000;50.360;7.582;2022-08-25T12:07:18;33.00;63.10
21678;DHT22;11000;50.360;7.582;2022-08-25T12:14:50;32.40;65.30
21678;DHT22;11000;50.360;7.582;2022-08-25T12:17:22;32.40;64.80
21678;DHT22;11000;50.360;7.582;2022-08-25T12:27:04;31.20;67.40
21678;DHT22;11000;50.360;7.582;2022-08-25T12:29:39;31.40;67.30
21678;DHT22;11000;50.360;7.582;2022-08-25T12:37:58;32.20;66.00
21678;DHT22;11000;50.360;7.582;2022-08-25T12:40:29;32.60;64.00
21678;DHT22;11000;50.360;7.582;2022-08-25T12:43:20;32.20;62.60
21678;DHT22;11000;50.360;7.582;2022-08-25T12:45:47;32.50;64.20
21678;DHT22;11000;50.360;7.582;2022-08-25T12:51:16;33.50;59.30
21678;DHT22;11000;50.360;7.582;2022-08-25T12:53:42;33.60;57.90
21678;DHT22;11000;50.360;7.582;2022-08-25T12:56:22;33.10;57.50
21678;DHT22;11000;50.360;7.582;2022-08-25T13:02:04;31.90;57.30
21678;DHT22;11000;50.360;7.582;2022-08-25T13:10:26;31.80;59.60
21678;DHT22;11000;50.360;7.582;2022-08-25T13:13:03;31.60;61.10
21678;DHT22;11000;50.360;7.582;2022-08-25T13:15:38;31.70;62.10
21678;DHT22;11000;50.360;7.582;2022-08-25T13:18:14;32.00;62.00
21678;DHT22;11000;50.360;7.582;2022-08-25T13:20:35;32.40;62.00
21678;DHT22;11000;50.360;7.582;2022-08-25T13:22:59;32.60;61.50
21678;DHT22;11000;50.360;7.582;2022-08-25T13:25:22;32.80;61.60
21678;DHT22;11000;50.360;7.582;2022-08-25T13:27:48;32.20;62.40
21678;DHT22;11000;50.360;7.582;2022-08-25T13:30:22;32.10;62.40
21678;DHT22;11000;50.360;7.582;2022-08-25T13:32:42;32.20;62.70
21678;DHT22;11000;50.360;7.582;2022-08-25T13:37:32;32.00;63.60
21678;DHT22;11000;50.360;7.582;2022-08-25T13:42:37;32.00;64.00
21678;DHT22;11000;50.360;7.582;2022-08-25T13:44:58;32.10;63.30
21678;DHT22;11000;50.360;7.582;2022-08-25T13:47:39;31.90;63.70
21678;DHT22;11000;50.360;7.582;2022-08-25T13:50:28;31.80;63.00
21678;DHT22;11000;50.360;7.582;2022-08-25T13:53:10;31.80;62.60
21678;DHT22;11000;50.360;7.582;2022-08-25T13:55:35;32.30;62.10
21678;DHT22;11000;50.360;7.582;2022-08-25T13:57:58;32.90;61.70
21678;DHT22;11000;50.360;7.582;2022-08-25T14:00:32;33.30;59.50
21678;DHT22;11000;50.360;7.582;2022-08-25T14:02:54;33.10;58.30
21678;DHT22;11000;50.360;7.582;2022-08-25T14:05:28;32.70;58.70
21678;DHT22;11000;50.360;7.582;2022-08-25T14:07:54;33.00;59.20
21678;DHT22;11000;50.360;7.582;2022-08-25T14:15:35;33.60;57.40
21678;DHT22;11000;50.360;7.582;2022-08-25T14:18:08;33.50;56.80
21678;DHT22;11000;50.360;7.582;2022-08-25T14:20:31;33.20;56.90
21678;DHT22;11000;50.360;7.582;2022-08-25T14:22:57;32.80;57.40
21678;DHT22;11000;50.360;7.582;2022-08-25T14:25:18;32.40;58.30
21678;DHT22;11000;50.360;7.582;2022-08-25T14:27:43;32.90;57.60
21678;DHT22;11000;50.360;7.582;2022-08-25T14:30:04;32.80;56.90
21678;DHT22;11000;50.360;7.582;2022-08-25T14:32:25;33.10;57.20
21678;DHT22;11000;50.360;7.582;2022-08-25T14:34:46;33.60;56.80
21678;DHT22;11000;50.360;7.582;2022-08-25T14:37:13;33.40;55.70
21678;DHT22;11000;50.360;7.582;2022-08-25T14:39:34;33.30;56.60
21678;DHT22;11000;50.360;7.582;2022-08-25T14:41:54;33.10;56.90
21678;DHT22;11000;50.360;7.582;2022-08-25T14:44:15;32.90;57.00
21678;DHT22;11000;50.360;7.582;2022-08-25T14:46:44;33.20;57.00
21678;DHT22;11000;50.360;7.582;2022-08-25T14:49:07;33.10;56.20
21678;DHT22;11000;50.360;7.582;2022-08-25T14:51:30;32.60;56.70
21678;DHT22;11000;50.360;7.582;2022-08-25T14:53:53;32.80;56.40
21678;DHT22;11000;50.360;7.582;2022-08-25T14:56:14;33.10;57.00
21678;DHT22;11000;50.360;7.582;2022-08-25T14:58:35;33.60;55.90
21678;DHT22;11000;50.360;7.582;2022-08-25T15:00:56;33.50;55.20
21678;DHT22;11000;50.360;7.582;2022-08-25T15:03:30;33.80;55.60
21678;DHT22;11000;50.360;7.582;2022-08-25T15:05:51;33.10;55.50
21678;DHT22;11000;50.360;7.582;2022-08-25T15:08:11;33.10;55.70
21678;DHT22;11000;50.360;7.582;2022-08-25T15:10:51;32.70;57.40
21678;DHT22;11000;50.360;7.582;2022-08-25T15:13:11;32.40;57.00
21678;DHT22;11000;50.360;7.582;2022-08-25T15:15:38;32.80;57.10
21678;DHT22;11000;50.360;7.582;2022-08-25T15:17:59;32.60;56.80
21678;DHT22;11000;50.360;7.582;2022-08-25T15:20:20;32.80;56.90
21678;DHT22;11000;50.360;7.582;2022-08-25T15:22:40;32.70;56.60
21678;DHT22;11000;50.360;7.582;2022-08-25T15:25:01;32.80;57.40
21678;DHT22;11000;50.360;7.582;2022-08-25T15:27:21;33.10;56.90
21678;DHT22;11000;50.360;7.582;2022-08-25T15:29:42;32.90;56.30
21678;DHT22;11000;50.360;7.582;2022-08-25T15:32:04;33.00;55.90
21678;DHT22;11000;50.360;7.582;2022-08-25T15:34:26;33.20;56.60
21678;DHT22;11000;50.360;7.582;2022-08-25T15:36:47;33.40;56.10
21678;DHT22;11000;50.360;7.582;2022-08-25T15:39:08;33.50;56.40
21678;DHT22;11000;50.360;7.582;2022-08-25T15:41:29;33.60;55.70
21678;DHT22;11000;50.360;7.582;2022-08-25T15:43:50;32.80;56.70
21678;DHT22;11000;50.360;7.582;2022-08-25T15:46:13;32.60;57.40
21678;DHT22;11000;50.360;7.582;2022-08-25T15:48:36;32.30;57.60
21678;DHT22;11000;50.360;7.582;2022-08-25T15:50:56;32.00;58.00
21678;DHT22;11000;50.360;7.582;2022-08-25T15:53:20;32.00;58.40
21678;DHT22;11000;50.360;7.582;2022-08-25T15:55:41;32.10;58.70
21678;DHT22;11000;50.360;7.582;2022-08-25T15:58:02;32.00;59.00
21678;DHT22;11000;50.360;7.582;2022-08-25T16:00:23;32.00;59.50
21678;DHT22;11000;50.360;7.582;2022-08-25T16:02:43;32.40;59.10
21678;DHT22;11000;50.360;7.582;2022-08-25T16:05:06;32.90;58.70
21678;DHT22;11000;50.360;7.582;2022-08-25T16:07:27;32.70;57.60
21678;DHT22;11000;50.360;7.582;2022-08-25T16:09:47;32.50;57.50
21678;DHT22;11000;50.360;7.582;2022-08-25T16:12:08;32.20;58.20
21678;DHT22;11000;50.360;7.582;2022-08-25T16:14:29;32.10;58.20
21678;DHT22;11000;50.360;7.582;2022-08-25T16:16:49;31.80;58.60
21678;DHT22;11000;50.360;7.582;2022-08-25T16:19:10;32.00;59.60
21678;DHT22;11000;50.360;7.582;2022-08-25T16:21:32;32.00;58.70
21678;DHT22;11000;50.360;7.582;2022-08-25T16:23:58;32.10;58.50
21678;DHT22;11000;50.360;7.582;2022-08-25T16:26:19;32.10;58.60
21678;DHT22;11000;50.360;7.582;2022-08-25T16:28:41;31.90;59.10
21678;DHT22;11000;50.360;7.582;2022-08-25T16:31:01;31.80;59.30
21678;DHT22;11000;50.360;7.582;2022-08-25T16:33:22;31.80;59.60
21678;DHT22;11000;50.360;7.582;2022-08-25T16:35:43;31.90;59.50
21678;DHT22;11000;50.360;7.582;2022-08-25T16:38:03;32.00;59.80
21678;DHT22;11000;50.360;7.582;2022-08-25T16:40:25;32.10;59.70
21678;DHT22;11000;50.360;7.582;2022-08-25T16:42:45;32.20;59.00
21678;DHT22;11000;50.360;7.582;2022-08-25T16:45:06;32.20;59.70
21678;DHT22;11000;50.360;7.582;2022-08-25T16:47:27;32.20;59.30
21678;DHT22;11000;50.360;7.582;2022-08-25T16:49:47;31.90;59.80
21678;DHT22;11000;50.360;7.582;2022-08-25T16:52:08;31.80;60.70